Jacksonboro, South Carolina
Current Conditions -  °F | °C
As of 11:15 AM on Tuesday 27 Jan 2015 (Local Time) from KRBW Reporting Station
Overcast Overcast  
Wind Chill: 41°   Ceiling: 8500
Heat Index: 45°   Visibility: 10mi
Dew Point: 27°   Wind: 6mph
Humidity: 49%   Direction: 320°NW
Pressure: 29.9"   Gusts: NA
Location:  32.77°N, 80.45°W
Report Text: KRBW 271615Z AUTO 32005KT 10SM SCT065 OVC085 07/M03 A2990 RMK AO2
Loading
Personal Weather Stations






























Interactive Weather Map New forecast layout! Learn more

10-Day Weather Forecast

Advertisements
Track Severe Weather on mobile